sensor_id;sensor_type;location;lat;lon;timestamp;P1;durP1;ratioP1;P2;durP2;ratioP2
19414;SDS011;9843;48.882;12.592;2022-10-16T00:01:49;7.73;;;7.00;;
19414;SDS011;9843;48.882;12.592;2022-10-16T00:04:15;9.17;;;6.37;;
19414;SDS011;9843;48.882;12.592;2022-10-16T00:06:42;12.03;;;8.27;;
19414;SDS011;9843;48.882;12.592;2022-10-16T00:09:09;7.70;;;5.97;;
19414;SDS011;9843;48.882;12.592;2022-10-16T00:11:37;7.20;;;6.13;;
19414;SDS011;9843;48.882;12.592;2022-10-16T00:14:05;10.70;;;6.70;;
19414;SDS011;9843;48.882;12.592;2022-10-16T00:16:35;6.90;;;6.30;;
19414;SDS011;9843;48.882;12.592;2022-10-16T00:19:02;8.77;;;6.47;;
19414;SDS011;9843;48.882;12.592;2022-10-16T00:21:30;7.27;;;6.00;;
19414;SDS011;9843;48.882;12.592;2022-10-16T00:24:00;9.17;;;6.90;;
19414;SDS011;9843;48.882;12.592;2022-10-16T00:26:28;10.77;;;6.50;;
19414;SDS011;9843;48.882;12.592;2022-10-16T00:28:56;9.10;;;6.23;;
19414;SDS011;9843;48.882;12.592;2022-10-16T00:31:23;7.00;;;5.83;;
19414;SDS011;9843;48.882;12.592;2022-10-16T00:33:52;7.47;;;6.13;;
19414;SDS011;9843;48.882;12.592;2022-10-16T00:36:20;7.07;;;6.33;;
19414;SDS011;9843;48.882;12.592;2022-10-16T00:38:50;15.20;;;6.10;;
19414;SDS011;9843;48.882;12.592;2022-10-16T00:41:19;7.73;;;5.77;;
19414;SDS011;9843;48.882;12.592;2022-10-16T00:43:48;20.57;;;9.00;;
19414;SDS011;9843;48.882;12.592;2022-10-16T00:46:17;7.73;;;6.60;;
19414;SDS011;9843;48.882;12.592;2022-10-16T00:48:47;7.93;;;7.23;;
19414;SDS011;9843;48.882;12.592;2022-10-16T00:51:19;7.10;;;6.47;;
19414;SDS011;9843;48.882;12.592;2022-10-16T00:53:49;11.00;;;8.77;;
19414;SDS011;9843;48.882;12.592;2022-10-16T00:56:16;10.87;;;6.60;;
19414;SDS011;9843;48.882;12.592;2022-10-16T00:58:44;9.37;;;6.67;;
19414;SDS011;9843;48.882;12.592;2022-10-16T01:01:11;8.13;;;7.33;;
19414;SDS011;9843;48.882;12.592;2022-10-16T01:03:38;12.97;;;7.87;;
19414;SDS011;9843;48.882;12.592;2022-10-16T01:06:07;8.07;;;7.33;;
19414;SDS011;9843;48.882;12.592;2022-10-16T01:08:47;9.73;;;7.20;;
19414;SDS011;9843;48.882;12.592;2022-10-16T01:11:27;12.17;;;7.60;;
19414;SDS011;9843;48.882;12.592;2022-10-16T01:14:00;8.53;;;6.70;;
19414;SDS011;9843;48.882;12.592;2022-10-16T01:19:09;8.67;;;7.33;;
19414;SDS011;9843;48.882;12.592;2022-10-16T01:21:40;7.93;;;6.23;;
19414;SDS011;9843;48.882;12.592;2022-10-16T01:24:15;8.80;;;7.83;;
19414;SDS011;9843;48.882;12.592;2022-10-16T01:29:48;8.03;;;6.77;;
19414;SDS011;9843;48.882;12.592;2022-10-16T01:32:20;10.83;;;8.27;;
19414;SDS011;9843;48.882;12.592;2022-10-16T01:34:52;13.03;;;8.00;;
19414;SDS011;9843;48.882;12.592;2022-10-16T01:37:27;8.60;;;7.40;;
19414;SDS011;9843;48.882;12.592;2022-10-16T01:39:59;10.10;;;7.00;;
19414;SDS011;9843;48.882;12.592;2022-10-16T01:42:31;11.27;;;8.57;;
19414;SDS011;9843;48.882;12.592;2022-10-16T01:45:01;10.43;;;7.83;;
19414;SDS011;9843;48.882;12.592;2022-10-16T01:47:31;13.53;;;8.63;;
19414;SDS011;9843;48.882;12.592;2022-10-16T01:49:59;14.13;;;8.83;;
19414;SDS011;9843;48.882;12.592;2022-10-16T01:52:29;11.13;;;8.60;;
19414;SDS011;9843;48.882;12.592;2022-10-16T01:55:00;8.43;;;7.67;;
19414;SDS011;9843;48.882;12.592;2022-10-16T01:57:32;8.43;;;7.63;;
19414;SDS011;9843;48.882;12.592;2022-10-16T02:00:05;19.40;;;9.20;;
19414;SDS011;9843;48.882;12.592;2022-10-16T02:02:35;11.03;;;8.83;;
19414;SDS011;9843;48.882;12.592;2022-10-16T02:05:05;11.70;;;9.03;;
19414;SDS011;9843;48.882;12.592;2022-10-16T02:07:39;11.53;;;9.20;;
19414;SDS011;9843;48.882;12.592;2022-10-16T02:10:07;9.73;;;8.80;;
19414;SDS011;9843;48.882;12.592;2022-10-16T02:12:36;10.10;;;8.93;;
19414;SDS011;9843;48.882;12.592;2022-10-16T02:15:07;9.80;;;8.90;;
19414;SDS011;9843;48.882;12.592;2022-10-16T02:17:34;9.47;;;8.50;;
19414;SDS011;9843;48.882;12.592;2022-10-16T02:20:01;10.43;;;8.90;;
19414;SDS011;9843;48.882;12.592;2022-10-16T02:22:30;10.53;;;9.53;;
19414;SDS011;9843;48.882;12.592;2022-10-16T02:25:02;13.60;;;9.60;;
19414;SDS011;9843;48.882;12.592;2022-10-16T02:27:33;10.10;;;9.17;;
19414;SDS011;9843;48.882;12.592;2022-10-16T02:30:07;14.80;;;9.17;;
19414;SDS011;9843;48.882;12.592;2022-10-16T02:32:38;22.83;;;9.67;;
19414;SDS011;9843;48.882;12.592;2022-10-16T02:35:08;12.53;;;8.97;;
19414;SDS011;9843;48.882;12.592;2022-10-16T02:37:36;10.27;;;9.07;;
19414;SDS011;9843;48.882;12.592;2022-10-16T02:40:05;9.90;;;8.90;;
19414;SDS011;9843;48.882;12.592;2022-10-16T02:42:33;9.23;;;8.37;;
19414;SDS011;9843;48.882;12.592;2022-10-16T02:45:03;10.30;;;8.63;;
19414;SDS011;9843;48.882;12.592;2022-10-16T02:47:31;9.10;;;8.20;;
19414;SDS011;9843;48.882;12.592;2022-10-16T02:49:58;11.57;;;9.10;;
19414;SDS011;9843;48.882;12.592;2022-10-16T02:52:25;9.03;;;8.20;;
19414;SDS011;9843;48.882;12.592;2022-10-16T02:54:51;14.90;;;8.57;;
19414;SDS011;9843;48.882;12.592;2022-10-16T02:57:18;12.43;;;10.00;;
19414;SDS011;9843;48.882;12.592;2022-10-16T02:59:45;16.70;;;9.50;;
19414;SDS011;9843;48.882;12.592;2022-10-16T03:02:13;10.90;;;9.67;;
19414;SDS011;9843;48.882;12.592;2022-10-16T03:04:40;13.73;;;9.27;;
19414;SDS011;9843;48.882;12.592;2022-10-16T03:07:07;10.80;;;9.70;;
19414;SDS011;9843;48.882;12.592;2022-10-16T03:09:33;13.07;;;9.73;;
19414;SDS011;9843;48.882;12.592;2022-10-16T03:12:00;9.70;;;8.70;;
19414;SDS011;9843;48.882;12.592;2022-10-16T03:14:27;11.80;;;9.17;;
19414;SDS011;9843;48.882;12.592;2022-10-16T03:16:53;14.20;;;11.63;;
19414;SDS011;9843;48.882;12.592;2022-10-16T03:19:21;11.77;;;9.37;;
19414;SDS011;9843;48.882;12.592;2022-10-16T03:21:48;10.47;;;9.13;;
19414;SDS011;9843;48.882;12.592;2022-10-16T03:24:15;16.47;;;12.53;;
19414;SDS011;9843;48.882;12.592;2022-10-16T03:26:42;12.13;;;9.57;;
19414;SDS011;9843;48.882;12.592;2022-10-16T03:29:08;14.13;;;10.57;;
19414;SDS011;9843;48.882;12.592;2022-10-16T03:31:35;13.90;;;11.07;;
19414;SDS011;9843;48.882;12.592;2022-10-16T03:34:02;22.13;;;11.17;;
19414;SDS011;9843;48.882;12.592;2022-10-16T03:36:30;13.90;;;10.80;;
19414;SDS011;9843;48.882;12.592;2022-10-16T03:38:57;14.20;;;12.23;;
19414;SDS011;9843;48.882;12.592;2022-10-16T03:41:23;12.53;;;11.10;;
19414;SDS011;9843;48.882;12.592;2022-10-16T03:43:50;14.77;;;11.80;;
19414;SDS011;9843;48.882;12.592;2022-10-16T03:46:17;12.50;;;10.90;;
19414;SDS011;9843;48.882;12.592;2022-10-16T03:48:44;13.73;;;10.93;;
19414;SDS011;9843;48.882;12.592;2022-10-16T03:51:10;14.17;;;12.23;;
19414;SDS011;9843;48.882;12.592;2022-10-16T03:53:38;13.27;;;11.77;;
19414;SDS011;9843;48.882;12.592;2022-10-16T03:56:05;18.23;;;11.60;;
19414;SDS011;9843;48.882;12.592;2022-10-16T03:58:32;16.77;;;13.60;;
19414;SDS011;9843;48.882;12.592;2022-10-16T04:00:59;16.10;;;14.13;;
19414;SDS011;9843;48.882;12.592;2022-10-16T04:03:26;15.20;;;11.77;;
19414;SDS011;9843;48.882;12.592;2022-10-16T04:05:52;18.60;;;12.93;;
19414;SDS011;9843;48.882;12.592;2022-10-16T04:08:19;11.27;;;10.00;;
19414;SDS011;9843;48.882;12.592;2022-10-16T04:10:47;16.93;;;10.73;;
19414;SDS011;9843;48.882;12.592;2022-10-16T04:13:14;16.07;;;12.43;;
19414;SDS011;9843;48.882;12.592;2022-10-16T04:15:41;15.17;;;10.87;;
19414;SDS011;9843;48.882;12.592;2022-10-16T04:18:08;14.87;;;10.93;;
19414;SDS011;9843;48.882;12.592;2022-10-16T04:20:34;12.80;;;10.17;;
19414;SDS011;9843;48.882;12.592;2022-10-16T04:23:01;14.47;;;11.40;;
19414;SDS011;9843;48.882;12.592;2022-10-16T04:25:28;16.60;;;10.47;;
19414;SDS011;9843;48.882;12.592;2022-10-16T04:27:57;14.00;;;12.50;;
19414;SDS011;9843;48.882;12.592;2022-10-16T04:30:24;17.07;;;12.97;;
19414;SDS011;9843;48.882;12.592;2022-10-16T04:32:51;15.23;;;11.43;;
19414;SDS011;9843;48.882;12.592;2022-10-16T04:35:18;15.50;;;11.57;;
19414;SDS011;9843;48.882;12.592;2022-10-16T04:37:46;18.50;;;12.67;;
19414;SDS011;9843;48.882;12.592;2022-10-16T04:40:13;18.57;;;12.37;;
19414;SDS011;9843;48.882;12.592;2022-10-16T04:42:40;21.60;;;13.30;;
19414;SDS011;9843;48.882;12.592;2022-10-16T04:45:09;16.33;;;11.23;;
19414;SDS011;9843;48.882;12.592;2022-10-16T04:47:36;12.67;;;10.67;;
19414;SDS011;9843;48.882;12.592;2022-10-16T04:50:03;13.93;;;11.17;;
19414;SDS011;9843;48.882;12.592;2022-10-16T04:52:31;13.70;;;10.97;;
19414;SDS011;9843;48.882;12.592;2022-10-16T04:54:58;14.00;;;12.33;;
19414;SDS011;9843;48.882;12.592;2022-10-16T04:57:27;15.73;;;12.67;;
19414;SDS011;9843;48.882;12.592;2022-10-16T04:59:54;17.60;;;11.80;;
19414;SDS011;9843;48.882;12.592;2022-10-16T05:02:22;16.03;;;12.53;;
19414;SDS011;9843;48.882;12.592;2022-10-16T05:04:49;18.17;;;12.77;;
19414;SDS011;9843;48.882;12.592;2022-10-16T05:07:16;15.47;;;12.30;;
19414;SDS011;9843;48.882;12.592;2022-10-16T05:09:43;13.40;;;11.90;;
19414;SDS011;9843;48.882;12.592;2022-10-16T05:12:09;16.03;;;12.33;;
19414;SDS011;9843;48.882;12.592;2022-10-16T05:14:36;14.53;;;12.40;;
19414;SDS011;9843;48.882;12.592;2022-10-16T05:17:03;15.07;;;12.03;;
19414;SDS011;9843;48.882;12.592;2022-10-16T05:19:31;15.50;;;12.47;;
19414;SDS011;9843;48.882;12.592;2022-10-16T05:21:58;13.17;;;10.40;;
19414;SDS011;9843;48.882;12.592;2022-10-16T05:24:25;12.83;;;10.43;;
19414;SDS011;9843;48.882;12.592;2022-10-16T05:26:52;19.03;;;12.40;;
19414;SDS011;9843;48.882;12.592;2022-10-16T05:29:18;14.60;;;11.70;;
19414;SDS011;9843;48.882;12.592;2022-10-16T05:31:45;21.53;;;12.73;;
19414;SDS011;9843;48.882;12.592;2022-10-16T05:34:12;15.67;;;13.90;;
19414;SDS011;9843;48.882;12.592;2022-10-16T05:36:41;18.47;;;11.53;;
19414;SDS011;9843;48.882;12.592;2022-10-16T05:39:09;16.80;;;13.03;;
19414;SDS011;9843;48.882;12.592;2022-10-16T05:41:36;17.67;;;11.23;;
19414;SDS011;9843;48.882;12.592;2022-10-16T05:44:03;12.37;;;11.03;;
19414;SDS011;9843;48.882;12.592;2022-10-16T05:46:31;15.47;;;12.73;;
19414;SDS011;9843;48.882;12.592;2022-10-16T05:48:58;14.27;;;10.63;;
19414;SDS011;9843;48.882;12.592;2022-10-16T05:51:25;13.67;;;10.70;;
19414;SDS011;9843;48.882;12.592;2022-10-16T05:53:53;15.53;;;12.33;;
19414;SDS011;9843;48.882;12.592;2022-10-16T05:56:19;17.37;;;13.00;;
19414;SDS011;9843;48.882;12.592;2022-10-16T05:58:46;12.63;;;11.13;;
19414;SDS011;9843;48.882;12.592;2022-10-16T06:01:13;11.83;;;10.73;;
19414;SDS011;9843;48.882;12.592;2022-10-16T06:03:42;12.97;;;11.20;;
19414;SDS011;9843;48.882;12.592;2022-10-16T06:06:09;11.50;;;10.17;;
19414;SDS011;9843;48.882;12.592;2022-10-16T06:08:37;10.37;;;9.43;;
19414;SDS011;9843;48.882;12.592;2022-10-16T06:11:06;11.47;;;8.47;;
19414;SDS011;9843;48.882;12.592;2022-10-16T06:13:35;10.77;;;8.13;;
19414;SDS011;9843;48.882;12.592;2022-10-16T06:16:02;11.07;;;9.20;;
19414;SDS011;9843;48.882;12.592;2022-10-16T06:18:30;13.20;;;11.57;;
19414;SDS011;9843;48.882;12.592;2022-10-16T06:20:57;13.90;;;9.37;;
19414;SDS011;9843;48.882;12.592;2022-10-16T06:23:24;8.80;;;7.93;;
19414;SDS011;9843;48.882;12.592;2022-10-16T06:25:51;9.07;;;7.77;;
19414;SDS011;9843;48.882;12.592;2022-10-16T06:28:19;11.10;;;6.43;;
19414;SDS011;9843;48.882;12.592;2022-10-16T06:30:46;6.83;;;6.13;;
19414;SDS011;9843;48.882;12.592;2022-10-16T06:33:12;12.43;;;4.73;;
19414;SDS011;9843;48.882;12.592;2022-10-16T06:35:39;6.73;;;4.90;;
19414;SDS011;9843;48.882;12.592;2022-10-16T06:38:06;8.57;;;4.07;;
19414;SDS011;9843;48.882;12.592;2022-10-16T06:40:32;5.03;;;4.57;;
19414;SDS011;9843;48.882;12.592;2022-10-16T06:42:59;9.17;;;4.50;;
19414;SDS011;9843;48.882;12.592;2022-10-16T06:45:27;4.87;;;4.47;;
19414;SDS011;9843;48.882;12.592;2022-10-16T06:47:54;7.80;;;5.27;;
19414;SDS011;9843;48.882;12.592;2022-10-16T06:50:21;20.30;;;5.30;;
19414;SDS011;9843;48.882;12.592;2022-10-16T06:52:47;6.17;;;5.57;;
19414;SDS011;9843;48.882;12.592;2022-10-16T06:55:14;6.27;;;5.50;;
19414;SDS011;9843;48.882;12.592;2022-10-16T06:57:42;10.50;;;5.40;;
19414;SDS011;9843;48.882;12.592;2022-10-16T07:00:09;7.70;;;5.50;;
19414;SDS011;9843;48.882;12.592;2022-10-16T07:02:38;5.43;;;4.93;;
19414;SDS011;9843;48.882;12.592;2022-10-16T07:05:04;8.60;;;4.60;;
19414;SDS011;9843;48.882;12.592;2022-10-16T07:07:32;5.53;;;5.03;;
19414;SDS011;9843;48.882;12.592;2022-10-16T07:09:58;8.10;;;7.30;;
19414;SDS011;9843;48.882;12.592;2022-10-16T07:12:25;5.60;;;5.10;;
19414;SDS011;9843;48.882;12.592;2022-10-16T07:14:52;4.90;;;4.50;;
19414;SDS011;9843;48.882;12.592;2022-10-16T07:17:19;7.57;;;4.90;;
19414;SDS011;9843;48.882;12.592;2022-10-16T07:19:48;5.70;;;5.00;;
19414;SDS011;9843;48.882;12.592;2022-10-16T07:22:17;10.20;;;5.37;;
19414;SDS011;9843;48.882;12.592;2022-10-16T07:24:44;4.93;;;3.90;;
19414;SDS011;9843;48.882;12.592;2022-10-16T07:27:11;11.33;;;5.33;;
19414;SDS011;9843;48.882;12.592;2022-10-16T07:29:38;6.63;;;5.13;;
19414;SDS011;9843;48.882;12.592;2022-10-16T07:32:05;4.87;;;3.90;;
19414;SDS011;9843;48.882;12.592;2022-10-16T07:34:32;3.50;;;3.20;;
19414;SDS011;9843;48.882;12.592;2022-10-16T07:37:00;3.20;;;2.83;;
19414;SDS011;9843;48.882;12.592;2022-10-16T07:39:27;7.60;;;3.03;;
19414;SDS011;9843;48.882;12.592;2022-10-16T07:41:53;3.53;;;2.90;;
19414;SDS011;9843;48.882;12.592;2022-10-16T07:44:20;3.77;;;3.37;;
19414;SDS011;9843;48.882;12.592;2022-10-16T07:46:47;5.50;;;3.10;;
19414;SDS011;9843;48.882;12.592;2022-10-16T07:49:14;3.33;;;3.03;;
19414;SDS011;9843;48.882;12.592;2022-10-16T07:51:41;3.43;;;2.70;;
19414;SDS011;9843;48.882;12.592;2022-10-16T07:54:09;3.20;;;2.90;;
19414;SDS011;9843;48.882;12.592;2022-10-16T07:56:36;4.20;;;3.23;;
19414;SDS011;9843;48.882;12.592;2022-10-16T07:59:03;8.20;;;3.10;;
19414;SDS011;9843;48.882;12.592;2022-10-16T08:01:30;3.07;;;2.57;;
19414;SDS011;9843;48.882;12.592;2022-10-16T08:03:57;3.47;;;3.13;;
19414;SDS011;9843;48.882;12.592;2022-10-16T08:06:23;3.47;;;2.90;;
19414;SDS011;9843;48.882;12.592;2022-10-16T08:08:50;4.83;;;3.13;;
19414;SDS011;9843;48.882;12.592;2022-10-16T08:11:19;7.50;;;2.50;;
19414;SDS011;9843;48.882;12.592;2022-10-16T08:13:45;5.23;;;2.73;;
19414;SDS011;9843;48.882;12.592;2022-10-16T08:16:12;4.30;;;2.57;;
19414;SDS011;9843;48.882;12.592;2022-10-16T08:18:40;7.17;;;3.03;;
19414;SDS011;9843;48.882;12.592;2022-10-16T08:21:07;6.13;;;2.80;;
19414;SDS011;9843;48.882;12.592;2022-10-16T08:23:39;2.67;;;2.17;;
19414;SDS011;9843;48.882;12.592;2022-10-16T08:26:06;3.70;;;2.27;;
19414;SDS011;9843;48.882;12.592;2022-10-16T08:28:36;4.40;;;2.33;;
19414;SDS011;9843;48.882;12.592;2022-10-16T08:31:07;4.37;;;2.00;;
19414;SDS011;9843;48.882;12.592;2022-10-16T08:33:35;5.47;;;2.17;;
19414;SDS011;9843;48.882;12.592;2022-10-16T08:36:02;3.30;;;2.00;;
19414;SDS011;9843;48.882;12.592;2022-10-16T08:38:29;3.27;;;2.13;;
19414;SDS011;9843;48.882;12.592;2022-10-16T08:40:57;4.97;;;2.87;;
19414;SDS011;9843;48.882;12.592;2022-10-16T08:43:58;3.77;;;2.37;;
19414;SDS011;9843;48.882;12.592;2022-10-16T08:46:37;4.40;;;2.60;;
19414;SDS011;9843;48.882;12.592;2022-10-16T08:49:11;2.93;;;2.57;;
19414;SDS011;9843;48.882;12.592;2022-10-16T08:51:39;2.33;;;2.13;;
19414;SDS011;9843;48.882;12.592;2022-10-16T08:54:11;2.60;;;1.90;;
19414;SDS011;9843;48.882;12.592;2022-10-16T08:56:49;2.53;;;1.83;;
19414;SDS011;9843;48.882;12.592;2022-10-16T08:59:17;5.97;;;3.30;;
19414;SDS011;9843;48.882;12.592;2022-10-16T09:01:45;2.40;;;2.00;;
19414;SDS011;9843;48.882;12.592;2022-10-16T09:07:13;3.97;;;2.20;;
19414;SDS011;9843;48.882;12.592;2022-10-16T09:09:51;8.67;;;2.57;;
19414;SDS011;9843;48.882;12.592;2022-10-16T09:12:27;2.77;;;2.00;;
19414;SDS011;9843;48.882;12.592;2022-10-16T09:15:03;4.00;;;2.50;;
19414;SDS011;9843;48.882;12.592;2022-10-16T09:17:41;2.57;;;2.20;;
19414;SDS011;9843;48.882;12.592;2022-10-16T09:23:14;3.17;;;2.70;;
19414;SDS011;9843;48.882;12.592;2022-10-16T09:25:44;2.53;;;1.83;;
19414;SDS011;9843;48.882;12.592;2022-10-16T09:28:13;2.40;;;2.13;;
19414;SDS011;9843;48.882;12.592;2022-10-16T09:30:42;2.67;;;2.30;;
19414;SDS011;9843;48.882;12.592;2022-10-16T09:33:10;2.17;;;1.97;;
19414;SDS011;9843;48.882;12.592;2022-10-16T09:35:39;2.33;;;1.60;;
19414;SDS011;9843;48.882;12.592;2022-10-16T09:38:08;4.30;;;1.87;;
19414;SDS011;9843;48.882;12.592;2022-10-16T09:40:46;3.80;;;1.80;;
19414;SDS011;9843;48.882;12.592;2022-10-16T09:43:17;1.97;;;1.63;;
19414;SDS011;9843;48.882;12.592;2022-10-16T09:45:56;3.57;;;2.50;;
19414;SDS011;9843;48.882;12.592;2022-10-16T09:48:25;5.30;;;2.20;;
19414;SDS011;9843;48.882;12.592;2022-10-16T09:50:58;3.47;;;2.73;;
19414;SDS011;9843;48.882;12.592;2022-10-16T09:53:27;2.60;;;2.00;;
19414;SDS011;9843;48.882;12.592;2022-10-16T09:56:09;2.90;;;2.47;;
19414;SDS011;9843;48.882;12.592;2022-10-16T09:58:41;2.03;;;1.80;;
19414;SDS011;9843;48.882;12.592;2022-10-16T10:01:12;2.30;;;2.10;;
19414;SDS011;9843;48.882;12.592;2022-10-16T10:03:40;2.40;;;1.83;;
19414;SDS011;9843;48.882;12.592;2022-10-16T10:06:16;5.10;;;2.00;;
19414;SDS011;9843;48.882;12.592;2022-10-16T10:08:55;2.57;;;2.33;;
19414;SDS011;9843;48.882;12.592;2022-10-16T10:11:37;1.77;;;1.50;;
19414;SDS011;9843;48.882;12.592;2022-10-16T10:14:09;2.27;;;1.80;;
19414;SDS011;9843;48.882;12.592;2022-10-16T10:16:45;2.37;;;1.80;;
19414;SDS011;9843;48.882;12.592;2022-10-16T10:19:13;7.67;;;2.60;;
19414;SDS011;9843;48.882;12.592;2022-10-16T10:21:41;1.80;;;1.23;;
19414;SDS011;9843;48.882;12.592;2022-10-16T10:24:09;3.70;;;1.97;;
19414;SDS011;9843;48.882;12.592;2022-10-16T10:26:37;1.37;;;1.27;;
19414;SDS011;9843;48.882;12.592;2022-10-16T10:29:08;1.67;;;1.57;;
19414;SDS011;9843;48.882;12.592;2022-10-16T10:31:47;3.47;;;1.83;;
19414;SDS011;9843;48.882;12.592;2022-10-16T10:34:29;2.07;;;1.40;;
19414;SDS011;9843;48.882;12.592;2022-10-16T10:37:04;2.60;;;1.38;;
19414;SDS011;9843;48.882;12.592;2022-10-16T10:39:46;1.63;;;1.42;;
19414;SDS011;9843;48.882;12.592;2022-10-16T10:42:21;1.58;;;1.13;;
19414;SDS011;9843;48.882;12.592;2022-10-16T10:45:03;4.25;;;1.70;;
19414;SDS011;9843;48.882;12.592;2022-10-16T10:47:48;4.55;;;2.38;;
19414;SDS011;9843;48.882;12.592;2022-10-16T10:50:23;2.30;;;1.40;;
19414;SDS011;9843;48.882;12.592;2022-10-16T10:52:58;4.30;;;1.95;;
19414;SDS011;9843;48.882;12.592;2022-10-16T10:55:32;3.47;;;0.95;;
19414;SDS011;9843;48.882;12.592;2022-10-16T11:01:00;2.20;;;1.40;;
19414;SDS011;9843;48.882;12.592;2022-10-16T11:06:39;3.65;;;1.45;;
19414;SDS011;9843;48.882;12.592;2022-10-16T11:09:09;3.40;;;2.42;;
19414;SDS011;9843;48.882;12.592;2022-10-16T11:11:42;8.05;;;6.03;;
19414;SDS011;9843;48.882;12.592;2022-10-16T11:14:14;3.35;;;2.33;;
19414;SDS011;9843;48.882;12.592;2022-10-16T11:16:46;3.20;;;2.38;;
19414;SDS011;9843;48.882;12.592;2022-10-16T11:19:22;3.45;;;2.55;;
19414;SDS011;9843;48.882;12.592;2022-10-16T11:22:00;9.23;;;7.20;;
19414;SDS011;9843;48.882;12.592;2022-10-16T11:24:35;4.15;;;1.42;;
19414;SDS011;9843;48.882;12.592;2022-10-16T11:27:08;1.83;;;1.13;;
19414;SDS011;9843;48.882;12.592;2022-10-16T11:29:40;5.47;;;2.47;;
19414;SDS011;9843;48.882;12.592;2022-10-16T11:32:15;2.63;;;1.73;;
19414;SDS011;9843;48.882;12.592;2022-10-16T11:34:51;1.80;;;1.13;;
19414;SDS011;9843;48.882;12.592;2022-10-16T11:37:23;2.72;;;1.83;;
19414;SDS011;9843;48.882;12.592;2022-10-16T11:39:56;2.33;;;0.85;;
19414;SDS011;9843;48.882;12.592;2022-10-16T11:42:30;4.05;;;2.17;;
19414;SDS011;9843;48.882;12.592;2022-10-16T11:45:04;2.50;;;1.83;;
19414;SDS011;9843;48.882;12.592;2022-10-16T11:47:51;1.50;;;1.27;;
19414;SDS011;9843;48.882;12.592;2022-10-16T11:50:26;3.58;;;1.73;;
19414;SDS011;9843;48.882;12.592;2022-10-16T11:52:59;10.35;;;7.72;;
19414;SDS011;9843;48.882;12.592;2022-10-16T11:55:30;2.03;;;1.50;;
19414;SDS011;9843;48.882;12.592;2022-10-16T11:58:02;1.90;;;1.45;;
19414;SDS011;9843;48.882;12.592;2022-10-16T12:00:35;4.35;;;1.63;;
19414;SDS011;9843;48.882;12.592;2022-10-16T12:03:09;2.50;;;1.60;;
19414;SDS011;9843;48.882;12.592;2022-10-16T12:05:50;2.28;;;1.73;;
19414;SDS011;9843;48.882;12.592;2022-10-16T12:08:40;1.88;;;1.65;;
19414;SDS011;9843;48.882;12.592;2022-10-16T12:11:19;5.95;;;1.35;;
19414;SDS011;9843;48.882;12.592;2022-10-16T12:14:03;2.70;;;2.13;;
19414;SDS011;9843;48.882;12.592;2022-10-16T12:16:54;2.53;;;1.85;;
19414;SDS011;9843;48.882;12.592;2022-10-16T12:19:24;3.50;;;2.00;;
19414;SDS011;9843;48.882;12.592;2022-10-16T12:21:54;4.93;;;2.75;;
19414;SDS011;9843;48.882;12.592;2022-10-16T12:24:28;2.42;;;2.10;;
19414;SDS011;9843;48.882;12.592;2022-10-16T12:26:58;4.25;;;2.17;;
19414;SDS011;9843;48.882;12.592;2022-10-16T12:29:29;5.65;;;3.28;;
19414;SDS011;9843;48.882;12.592;2022-10-16T12:32:00;4.03;;;2.60;;
19414;SDS011;9843;48.882;12.592;2022-10-16T12:34:28;5.13;;;3.42;;
19414;SDS011;9843;48.882;12.592;2022-10-16T12:37:08;3.08;;;2.00;;
19414;SDS011;9843;48.882;12.592;2022-10-16T12:39:38;3.00;;;2.30;;
19414;SDS011;9843;48.882;12.592;2022-10-16T12:42:19;3.53;;;2.73;;
19414;SDS011;9843;48.882;12.592;2022-10-16T12:44:49;6.83;;;3.33;;
19414;SDS011;9843;48.882;12.592;2022-10-16T12:47:19;3.53;;;2.53;;
19414;SDS011;9843;48.882;12.592;2022-10-16T12:49:48;3.40;;;2.77;;
19414;SDS011;9843;48.882;12.592;2022-10-16T12:52:24;5.40;;;2.83;;
19414;SDS011;9843;48.882;12.592;2022-10-16T12:54:55;3.47;;;2.87;;
19414;SDS011;9843;48.882;12.592;2022-10-16T12:57:30;8.57;;;3.73;;
19414;SDS011;9843;48.882;12.592;2022-10-16T13:00:10;3.97;;;3.57;;
19414;SDS011;9843;48.882;12.592;2022-10-16T13:02:52;6.30;;;3.77;;
19414;SDS011;9843;48.882;12.592;2022-10-16T13:05:33;11.00;;;3.53;;
19414;SDS011;9843;48.882;12.592;2022-10-16T13:08:18;5.00;;;3.40;;
19414;SDS011;9843;48.882;12.592;2022-10-16T13:10:58;5.80;;;2.80;;
19414;SDS011;9843;48.882;12.592;2022-10-16T13:13:35;4.20;;;3.47;;
19414;SDS011;9843;48.882;12.592;2022-10-16T13:16:15;5.90;;;3.47;;
19414;SDS011;9843;48.882;12.592;2022-10-16T13:18:50;5.03;;;3.50;;
19414;SDS011;9843;48.882;12.592;2022-10-16T13:21:31;4.20;;;2.90;;
19414;SDS011;9843;48.882;12.592;2022-10-16T13:24:09;4.10;;;3.13;;
19414;SDS011;9843;48.882;12.592;2022-10-16T13:26:43;6.63;;;3.13;;
19414;SDS011;9843;48.882;12.592;2022-10-16T13:29:16;5.23;;;3.40;;
19414;SDS011;9843;48.882;12.592;2022-10-16T13:31:44;3.57;;;3.27;;
19414;SDS011;9843;48.882;12.592;2022-10-16T13:34:12;3.73;;;3.30;;
19414;SDS011;9843;48.882;12.592;2022-10-16T13:36:43;4.67;;;3.10;;
19414;SDS011;9843;48.882;12.592;2022-10-16T13:39:13;4.97;;;3.07;;
19414;SDS011;9843;48.882;12.592;2022-10-16T13:41:42;3.70;;;3.00;;
19414;SDS011;9843;48.882;12.592;2022-10-16T13:44:13;9.03;;;5.23;;
19414;SDS011;9843;48.882;12.592;2022-10-16T13:46:44;5.27;;;4.13;;
19414;SDS011;9843;48.882;12.592;2022-10-16T13:49:12;6.07;;;3.67;;
19414;SDS011;9843;48.882;12.592;2022-10-16T13:51:40;6.97;;;3.93;;
19414;SDS011;9843;48.882;12.592;2022-10-16T13:54:09;7.77;;;4.57;;
19414;SDS011;9843;48.882;12.592;2022-10-16T13:56:38;4.60;;;3.60;;
19414;SDS011;9843;48.882;12.592;2022-10-16T13:59:06;6.03;;;4.07;;
19414;SDS011;9843;48.882;12.592;2022-10-16T14:01:49;9.10;;;4.53;;
19414;SDS011;9843;48.882;12.592;2022-10-16T14:04:19;4.90;;;3.73;;
19414;SDS011;9843;48.882;12.592;2022-10-16T14:06:46;5.17;;;3.67;;
19414;SDS011;9843;48.882;12.592;2022-10-16T14:09:18;6.37;;;4.07;;
19414;SDS011;9843;48.882;12.592;2022-10-16T14:11:51;5.10;;;4.13;;
19414;SDS011;9843;48.882;12.592;2022-10-16T14:14:20;9.33;;;3.67;;
19414;SDS011;9843;48.882;12.592;2022-10-16T14:16:48;6.17;;;3.97;;
19414;SDS011;9843;48.882;12.592;2022-10-16T14:19:17;4.30;;;3.70;;
19414;SDS011;9843;48.882;12.592;2022-10-16T14:21:48;10.10;;;4.97;;
19414;SDS011;9843;48.882;12.592;2022-10-16T14:24:22;6.10;;;4.07;;
19414;SDS011;9843;48.882;12.592;2022-10-16T14:26:53;6.87;;;5.13;;
19414;SDS011;9843;48.882;12.592;2022-10-16T14:29:21;7.17;;;4.30;;
19414;SDS011;9843;48.882;12.592;2022-10-16T14:31:59;6.57;;;4.20;;
19414;SDS011;9843;48.882;12.592;2022-10-16T14:34:28;3.93;;;3.50;;
19414;SDS011;9843;48.882;12.592;2022-10-16T14:36:58;8.67;;;5.03;;
19414;SDS011;9843;48.882;12.592;2022-10-16T14:39:29;7.77;;;4.63;;
19414;SDS011;9843;48.882;12.592;2022-10-16T14:41:58;9.63;;;4.60;;
19414;SDS011;9843;48.882;12.592;2022-10-16T14:44:28;5.73;;;4.73;;
19414;SDS011;9843;48.882;12.592;2022-10-16T14:46:58;4.57;;;3.80;;
19414;SDS011;9843;48.882;12.592;2022-10-16T14:49:32;9.90;;;3.63;;
19414;SDS011;9843;48.882;12.592;2022-10-16T14:51:59;8.33;;;4.50;;
19414;SDS011;9843;48.882;12.592;2022-10-16T14:54:26;6.60;;;4.13;;
19414;SDS011;9843;48.882;12.592;2022-10-16T14:56:53;5.80;;;4.17;;
19414;SDS011;9843;48.882;12.592;2022-10-16T14:59:24;7.27;;;3.87;;
19414;SDS011;9843;48.882;12.592;2022-10-16T15:01:54;4.30;;;3.77;;
19414;SDS011;9843;48.882;12.592;2022-10-16T15:04:21;7.27;;;3.97;;
19414;SDS011;9843;48.882;12.592;2022-10-16T15:06:48;6.03;;;3.80;;
19414;SDS011;9843;48.882;12.592;2022-10-16T15:09:15;5.23;;;4.30;;
19414;SDS011;9843;48.882;12.592;2022-10-16T15:11:42;7.60;;;4.17;;
19414;SDS011;9843;48.882;12.592;2022-10-16T15:14:11;4.83;;;3.57;;
19414;SDS011;9843;48.882;12.592;2022-10-16T15:16:39;8.93;;;5.33;;